createdAt,value
2017-08-07T00:00:01.780Z,13.74
2017-08-07T00:02:30.177Z,13.72
2017-08-07T00:04:57.624Z,13.78
2017-08-07T00:07:25.100Z,13.49
2017-08-07T00:09:52.559Z,13.65
2017-08-07T00:12:20.064Z,13.64
2017-08-07T00:14:47.532Z,13.54
2017-08-07T00:17:15.009Z,13.56
2017-08-07T00:19:42.474Z,13.33
2017-08-07T00:22:10.042Z,13.19
2017-08-07T00:24:37.495Z,12.93
2017-08-07T00:27:05.055Z,13.22
2017-08-07T00:29:32.516Z,13.43
2017-08-07T00:31:59.985Z,13.44
2017-08-07T00:34:27.466Z,13.30
2017-08-07T00:36:54.922Z,13.12
2017-08-07T00:39:22.393Z,13.13
2017-08-07T00:41:49.861Z,13.18
2017-08-07T00:44:17.327Z,13.24
2017-08-07T00:46:44.824Z,13.14
2017-08-07T00:49:12.310Z,13.05
2017-08-07T00:51:39.861Z,13.16
2017-08-07T00:54:07.388Z,13.08
2017-08-07T00:56:34.860Z,13.05
2017-08-07T00:59:02.331Z,13.17
2017-08-07T01:01:29.797Z,13.00
2017-08-07T01:03:57.328Z,13.00
2017-08-07T01:06:24.893Z,12.89
2017-08-07T01:08:52.390Z,12.60
2017-08-07T01:11:19.873Z,12.73
2017-08-07T01:13:47.357Z,12.79
2017-08-07T01:16:14.837Z,12.76
2017-08-07T01:18:42.297Z,12.88
2017-08-07T01:21:09.777Z,12.83
2017-08-07T01:23:37.288Z,12.81
2017-08-07T01:26:04.773Z,12.81
2017-08-07T01:28:32.293Z,12.74
2017-08-07T01:30:59.757Z,12.70
2017-08-07T01:33:27.200Z,12.68
2017-08-07T01:35:54.667Z,12.71
2017-08-07T01:38:22.129Z,12.68
2017-08-07T01:40:49.693Z,12.67
2017-08-07T01:43:17.233Z,12.69
2017-08-07T01:45:44.784Z,12.64
2017-08-07T01:48:12.237Z,12.45
2017-08-07T01:50:39.694Z,12.60
2017-08-07T01:53:07.293Z,12.54
2017-08-07T01:55:34.754Z,12.42
2017-08-07T01:58:02.226Z,12.39
2017-08-07T02:00:29.683Z,11.92
2017-08-07T02:02:57.170Z,11.92
2017-08-07T02:05:24.616Z,11.86
2017-08-07T02:07:52.113Z,12.05
2017-08-07T02:10:19.559Z,12.15
2017-08-07T02:12:47.093Z,12.16
2017-08-07T02:15:14.554Z,12.13
2017-08-07T02:17:42.053Z,12.07
2017-08-07T02:20:09.705Z,12.12
2017-08-07T02:22:37.261Z,12.07
2017-08-07T02:25:04.725Z,12.10
2017-08-07T02:27:32.191Z,12.10
2017-08-07T02:29:59.676Z,11.90
2017-08-07T02:32:27.210Z,11.93
2017-08-07T02:34:54.708Z,11.91
2017-08-07T02:37:22.248Z,11.89
2017-08-07T02:39:49.734Z,11.94
2017-08-07T02:42:17.193Z,12.00
2017-08-07T02:44:44.818Z,12.02
2017-08-07T02:47:12.288Z,11.88
2017-08-07T02:49:39.779Z,11.91
2017-08-07T02:52:07.261Z,11.99
2017-08-07T02:54:34.806Z,11.92
2017-08-07T02:57:02.277Z,12.02
2017-08-07T02:59:29.777Z,11.90
2017-08-07T03:01:57.236Z,11.74
2017-08-07T03:04:24.687Z,11.71
2017-08-07T03:06:52.189Z,11.75
2017-08-07T03:09:19.645Z,11.70
2017-08-07T03:11:47.137Z,11.70
2017-08-07T03:14:14.670Z,11.46
2017-08-07T03:16:42.139Z,11.54
2017-08-07T03:19:09.605Z,11.49
2017-08-07T03:21:37.071Z,11.16
2017-08-07T03:24:04.638Z,11.36
2017-08-07T03:26:32.177Z,11.38
2017-08-07T03:28:59.700Z,11.24
2017-08-07T03:31:27.265Z,11.19
2017-08-07T03:33:54.736Z,11.31
2017-08-07T03:36:22.203Z,11.41
2017-08-07T03:38:49.669Z,11.34
2017-08-07T03:41:17.197Z,11.40
2017-08-07T03:43:44.644Z,11.31
2017-08-07T03:46:12.133Z,11.22
2017-08-07T03:48:39.666Z,11.20
2017-08-07T03:51:07.129Z,11.28
2017-08-07T03:53:34.689Z,11.29
2017-08-07T03:56:02.170Z,11.39
2017-08-07T03:58:29.648Z,11.15
2017-08-07T04:00:57.114Z,11.17
2017-08-07T04:03:24.713Z,11.17
2017-08-07T04:05:52.319Z,11.15
2017-08-07T04:08:19.801Z,11.13
2017-08-07T04:10:47.258Z,11.03
2017-08-07T04:13:14.846Z,11.14
2017-08-07T04:15:42.325Z,11.15
2017-08-07T04:18:09.863Z,11.18
2017-08-07T04:20:37.424Z,11.19
2017-08-07T04:23:04.905Z,11.29
2017-08-07T04:25:32.441Z,11.32
2017-08-07T04:27:59.884Z,11.25
2017-08-07T04:30:27.461Z,11.42
2017-08-07T04:32:55.010Z,11.52
2017-08-07T04:35:22.563Z,11.53
2017-08-07T04:37:50.031Z,11.39
2017-08-07T04:40:17.593Z,11.40
2017-08-07T04:42:45.127Z,11.36
2017-08-07T04:45:12.697Z,11.47
2017-08-07T04:47:40.161Z,11.53
2017-08-07T04:50:07.717Z,11.47
2017-08-07T04:52:35.321Z,11.26
2017-08-07T04:55:02.806Z,11.92
2017-08-07T04:57:30.268Z,12.90
2017-08-07T04:59:57.747Z,13.94
2017-08-07T05:02:25.275Z,14.38
2017-08-07T05:04:52.741Z,14.93
2017-08-07T05:07:20.341Z,15.22
2017-08-07T05:09:47.799Z,15.40
2017-08-07T05:12:15.335Z,15.69
2017-08-07T05:14:42.796Z,15.75
2017-08-07T05:17:10.349Z,16.01
2017-08-07T05:19:37.804Z,16.26
2017-08-07T05:22:05.281Z,16.27
2017-08-07T05:24:32.819Z,16.37
2017-08-07T05:27:00.830Z,16.35
2017-08-07T05:29:28.354Z,16.43
2017-08-07T05:31:55.922Z,16.39
2017-08-07T05:34:23.397Z,16.64
2017-08-07T05:36:50.934Z,16.40
2017-08-07T05:39:18.522Z,16.74
2017-08-07T05:41:46.021Z,16.51
2017-08-07T05:44:13.505Z,16.99
2017-08-07T05:46:41.056Z,16.78
2017-08-07T05:49:08.512Z,16.85
2017-08-07T05:51:42.181Z,17.35
2017-08-07T05:54:09.641Z,17.13
2017-08-07T05:56:37.092Z,17.54
2017-08-07T05:59:04.632Z,17.60
2017-08-07T06:01:32.175Z,17.38
2017-08-07T06:04:00.069Z,17.58
2017-08-07T06:06:27.581Z,17.95
2017-08-07T06:08:55.065Z,17.67
2017-08-07T06:11:22.589Z,17.73
2017-08-07T06:13:50.072Z,17.93
2017-08-07T06:16:18.151Z,18.15
2017-08-07T06:18:45.630Z,17.95
2017-08-07T06:21:13.091Z,18.29
2017-08-07T06:23:40.570Z,18.08
2017-08-07T06:26:08.032Z,18.38
2017-08-07T06:28:35.857Z,18.15
2017-08-07T06:31:03.317Z,18.21
2017-08-07T06:33:30.820Z,17.80
2017-08-07T06:35:58.277Z,17.85
2017-08-07T06:38:25.818Z,17.80
2017-08-07T06:40:53.292Z,18.32
2017-08-07T06:43:20.845Z,18.15
2017-08-07T06:45:48.329Z,17.98
2017-08-07T06:48:15.857Z,18.11
2017-08-07T06:50:43.420Z,18.03
2017-08-07T06:53:10.981Z,17.55
2017-08-07T06:55:38.536Z,17.33
2017-08-07T06:58:06.021Z,17.74
2017-08-07T07:00:33.509Z,17.95
2017-08-07T07:03:01.005Z,18.21
2017-08-07T07:05:28.514Z,17.99
2017-08-07T07:07:56.020Z,18.51
2017-08-07T07:10:23.590Z,18.46
2017-08-07T07:12:51.088Z,18.12
2017-08-07T07:15:18.573Z,18.68
2017-08-07T07:17:46.029Z,18.68
2017-08-07T07:20:13.513Z,18.98
2017-08-07T07:22:40.976Z,18.88
2017-08-07T07:25:08.530Z,19.43
2017-08-07T07:27:35.989Z,19.38
2017-08-07T07:30:03.450Z,19.36
2017-08-07T07:32:31.399Z,19.32
2017-08-07T07:34:58.993Z,19.30
2017-08-07T07:37:26.573Z,19.61
2017-08-07T07:39:54.086Z,20.08
2017-08-07T07:42:21.565Z,20.19
2017-08-07T07:44:49.253Z,20.65
2017-08-07T07:47:16.733Z,20.27
2017-08-07T07:49:44.193Z,20.48
2017-08-07T07:52:11.675Z,20.28
2017-08-07T07:54:39.142Z,20.12
2017-08-07T07:57:06.841Z,20.60
2017-08-07T07:59:34.360Z,21.07
2017-08-07T08:02:01.842Z,21.06
2017-08-07T08:04:29.376Z,21.14
2017-08-07T08:06:56.930Z,21.09
2017-08-07T08:12:17.072Z,21.17
2017-08-07T08:14:44.532Z,21.54
2017-08-07T08:17:12.022Z,21.33
2017-08-07T08:19:39.550Z,21.19
2017-08-07T08:22:07.054Z,21.59
2017-08-07T08:24:34.499Z,21.76
2017-08-07T08:27:01.980Z,22.14
2017-08-07T08:29:29.580Z,22.09
2017-08-07T08:31:57.035Z,22.07
2017-08-07T08:34:24.546Z,22.35
2017-08-07T08:36:52.015Z,22.89
2017-08-07T08:39:19.569Z,23.04
2017-08-07T08:41:47.029Z,23.33
2017-08-07T08:44:14.582Z,22.82
2017-08-07T08:46:42.035Z,22.49
2017-08-07T08:49:09.515Z,22.53
2017-08-07T08:51:36.986Z,22.63
2017-08-07T08:54:04.469Z,23.10
2017-08-07T08:56:31.925Z,23.40
2017-08-07T08:58:59.417Z,23.19
2017-08-07T09:01:26.885Z,23.46
2017-08-07T09:03:54.355Z,23.47
2017-08-07T09:06:21.894Z,23.20
2017-08-07T09:08:49.368Z,23.76
2017-08-07T09:11:16.863Z,23.35
2017-08-07T09:13:44.365Z,23.81
2017-08-07T09:16:11.860Z,23.45
2017-08-07T09:18:39.318Z,23.57
2017-08-07T09:21:06.905Z,23.93
2017-08-07T09:23:34.371Z,23.80
2017-08-07T09:26:01.842Z,24.38
2017-08-07T09:28:29.395Z,24.10
2017-08-07T09:30:56.973Z,24.58
2017-08-07T09:33:24.549Z,24.01
2017-08-07T09:35:52.089Z,24.84
2017-08-07T09:38:19.643Z,24.41
2017-08-07T09:40:47.187Z,24.58
2017-08-07T09:43:14.666Z,24.45
2017-08-07T09:45:42.209Z,24.09
2017-08-07T09:48:09.781Z,24.63
2017-08-07T09:50:37.241Z,24.83
2017-08-07T09:53:04.717Z,24.95
2017-08-07T09:55:32.241Z,24.74
2017-08-07T09:57:59.733Z,25.22
2017-08-07T10:00:27.270Z,25.17
2017-08-07T10:02:54.772Z,25.37
2017-08-07T10:05:22.278Z,25.01
2017-08-07T10:07:49.844Z,25.30
2017-08-07T10:10:17.306Z,25.39
2017-08-07T10:12:44.858Z,25.04
2017-08-07T10:15:12.359Z,25.31
2017-08-07T10:17:39.837Z,25.72
2017-08-07T10:20:07.317Z,25.62
2017-08-07T10:22:34.885Z,25.69
2017-08-07T10:25:02.447Z,25.90
2017-08-07T10:27:29.890Z,25.59
2017-08-07T10:29:57.455Z,25.66
2017-08-07T10:32:24.916Z,25.22
2017-08-07T10:34:52.469Z,25.16
2017-08-07T10:37:19.937Z,25.54
2017-08-07T10:39:47.485Z,25.09
2017-08-07T10:42:14.936Z,25.65
2017-08-07T10:44:42.414Z,26.06
2017-08-07T10:47:09.966Z,26.22
2017-08-07T10:49:37.523Z,25.44
2017-08-07T10:52:04.971Z,25.51
2017-08-07T10:54:32.537Z,25.28
2017-08-07T10:57:00.004Z,25.68
2017-08-07T10:59:27.461Z,26.21
2017-08-07T11:01:54.996Z,26.21
2017-08-07T11:04:22.455Z,25.99
2017-08-07T11:06:49.954Z,26.52
2017-08-07T11:09:17.400Z,26.38
2017-08-07T11:11:44.885Z,26.62
2017-08-07T11:14:12.393Z,27.18
2017-08-07T11:16:39.951Z,27.27
2017-08-07T11:19:07.553Z,27.28
2017-08-07T11:21:35.030Z,26.57
2017-08-07T11:24:02.518Z,26.15
2017-08-07T11:26:30.021Z,25.83
2017-08-07T11:28:57.542Z,26.05
2017-08-07T11:31:25.086Z,26.11
2017-08-07T11:33:52.642Z,26.29
2017-08-07T11:36:20.125Z,25.92
2017-08-07T11:38:47.674Z,26.55
2017-08-07T11:41:15.239Z,26.21
2017-08-07T11:43:42.702Z,26.32
2017-08-07T11:46:10.246Z,26.05
2017-08-07T11:48:37.802Z,26.57
2017-08-07T11:51:05.270Z,26.43
2017-08-07T11:53:32.765Z,26.89
2017-08-07T11:56:00.281Z,26.38
2017-08-07T11:58:27.824Z,26.08
2017-08-07T12:00:55.286Z,26.42
2017-08-07T12:03:22.765Z,26.35
2017-08-07T12:05:50.297Z,26.54
2017-08-07T12:08:17.774Z,26.64
2017-08-07T12:10:45.311Z,27.00
2017-08-07T12:13:12.798Z,27.04
2017-08-07T12:15:40.252Z,27.09
2017-08-07T12:18:07.719Z,27.15
2017-08-07T12:20:35.178Z,27.13
2017-08-07T12:23:02.667Z,26.94
2017-08-07T12:25:30.153Z,27.08
2017-08-07T12:27:57.717Z,27.28
2017-08-07T12:30:25.210Z,26.65
2017-08-07T12:32:52.682Z,27.20
2017-08-07T12:35:20.162Z,27.69
2017-08-07T12:37:47.648Z,27.87
2017-08-07T12:40:15.225Z,27.58
2017-08-07T12:42:42.698Z,27.33
2017-08-07T12:45:10.225Z,27.49
2017-08-07T12:47:37.714Z,26.91
2017-08-07T12:50:05.242Z,27.08
2017-08-07T12:52:32.708Z,26.79
2017-08-07T12:55:00.249Z,26.69
2017-08-07T12:57:27.704Z,26.97
2017-08-07T12:59:55.265Z,26.80
2017-08-07T13:02:22.732Z,27.26
2017-08-07T13:04:50.282Z,27.43
2017-08-07T13:07:17.765Z,27.21
2017-08-07T13:09:45.310Z,26.92
2017-08-07T13:12:12.863Z,26.94
2017-08-07T13:14:40.461Z,26.36
2017-08-07T13:17:08.081Z,26.69
2017-08-07T13:19:35.620Z,27.18
2017-08-07T13:22:03.202Z,27.30
2017-08-07T13:24:30.762Z,27.81
2017-08-07T13:26:58.237Z,27.92
2017-08-07T13:29:25.735Z,27.85
2017-08-07T13:31:53.212Z,27.84
2017-08-07T13:34:20.753Z,27.78
2017-08-07T13:36:48.239Z,27.91
2017-08-07T13:39:15.778Z,27.79
2017-08-07T13:41:43.261Z,26.85
2017-08-07T13:44:10.762Z,26.88
2017-08-07T13:46:38.230Z,26.93
2017-08-07T13:49:05.725Z,26.85
2017-08-07T13:51:33.228Z,26.62
2017-08-07T13:54:00.777Z,26.66
2017-08-07T13:56:28.307Z,26.96
2017-08-07T13:58:55.893Z,27.14
2017-08-07T14:01:23.412Z,26.88
2017-08-07T14:03:50.974Z,26.92
2017-08-07T14:06:18.450Z,27.25
2017-08-07T14:08:45.925Z,27.49
2017-08-07T14:11:17.387Z,27.28
2017-08-07T14:13:44.839Z,27.29
2017-08-07T14:16:12.352Z,27.63
2017-08-07T14:18:39.918Z,27.47
2017-08-07T14:21:07.470Z,27.24
2017-08-07T14:23:35.031Z,27.38
2017-08-07T14:26:02.521Z,27.24
2017-08-07T14:28:29.983Z,26.79
2017-08-07T14:30:57.504Z,26.44
2017-08-07T14:33:25.106Z,27.10
2017-08-07T14:35:52.585Z,27.08
2017-08-07T14:38:20.122Z,27.49
2017-08-07T14:40:47.619Z,27.33
2017-08-07T14:43:15.233Z,26.90
2017-08-07T14:45:42.853Z,27.18
2017-08-07T14:48:10.342Z,26.91
2017-08-07T14:50:37.874Z,26.92
2017-08-07T14:53:05.333Z,27.03
2017-08-07T14:55:33.006Z,27.11
2017-08-07T14:58:00.591Z,27.13
2017-08-07T15:00:28.061Z,27.20
2017-08-07T15:02:55.576Z,27.28
2017-08-07T15:05:23.117Z,27.12
2017-08-07T15:07:50.819Z,27.19
2017-08-07T15:10:18.441Z,27.13
2017-08-07T15:12:46.001Z,27.37
2017-08-07T15:15:13.467Z,27.17
2017-08-07T15:17:41.041Z,27.12
2017-08-07T15:20:08.651Z,27.03
2017-08-07T15:22:36.238Z,26.85
2017-08-07T15:25:03.713Z,26.99
2017-08-07T15:27:31.272Z,27.26
2017-08-07T15:29:58.765Z,27.19
2017-08-07T15:32:26.314Z,26.87
2017-08-07T15:34:53.826Z,27.27
2017-08-07T15:37:21.342Z,27.50
2017-08-07T15:39:48.845Z,27.36
2017-08-07T15:42:16.332Z,27.67
2017-08-07T15:44:43.902Z,27.91
2017-08-07T15:47:11.361Z,27.32
2017-08-07T15:49:38.873Z,27.39
2017-08-07T15:52:06.350Z,27.17
2017-08-07T15:54:33.892Z,26.98
2017-08-07T15:57:02.147Z,27.00
2017-08-07T15:59:29.625Z,27.43
2017-08-07T16:01:57.082Z,27.73
2017-08-07T16:04:24.680Z,27.30
2017-08-07T16:06:52.197Z,26.97
2017-08-07T16:09:19.689Z,27.32
2017-08-07T16:11:47.151Z,27.30
2017-08-07T16:14:14.709Z,27.06
2017-08-07T16:16:42.237Z,27.16
2017-08-07T16:19:09.747Z,27.11
2017-08-07T16:21:37.191Z,27.30
2017-08-07T16:24:04.654Z,27.30
2017-08-07T16:26:32.157Z,27.38
2017-08-07T16:28:59.621Z,27.55
2017-08-07T16:31:27.197Z,27.49
2017-08-07T16:33:54.672Z,27.66
2017-08-07T16:36:22.202Z,27.48
2017-08-07T16:38:49.668Z,27.15
2017-08-07T16:41:17.165Z,27.21
2017-08-07T16:43:44.662Z,27.14
2017-08-07T16:46:12.153Z,27.17
2017-08-07T16:48:40.547Z,27.11
2017-08-07T16:51:08.045Z,27.06
2017-08-07T16:53:35.506Z,27.12
2017-08-07T16:56:02.989Z,27.14
2017-08-07T16:58:30.516Z,27.00
2017-08-07T17:00:58.377Z,27.03
2017-08-07T17:03:25.845Z,27.05
2017-08-07T17:05:53.444Z,26.96
2017-08-07T17:08:20.949Z,27.03
2017-08-07T17:10:48.503Z,26.92
2017-08-07T17:13:15.967Z,27.08
2017-08-07T17:15:43.530Z,26.98
2017-08-07T17:18:11.008Z,26.75
2017-08-07T17:20:38.569Z,26.79
2017-08-07T17:23:06.105Z,26.83
2017-08-07T17:25:33.668Z,26.74
2017-08-07T17:28:01.218Z,26.70
2017-08-07T17:30:28.702Z,26.64
2017-08-07T17:32:56.200Z,26.58
2017-08-07T17:35:23.692Z,26.43
2017-08-07T17:37:51.257Z,26.51
2017-08-07T17:40:18.810Z,26.28
2017-08-07T17:42:46.306Z,26.15
2017-08-07T17:45:13.770Z,26.20
2017-08-07T17:47:41.285Z,26.01
2017-08-07T17:50:08.766Z,25.97
2017-08-07T17:52:36.328Z,25.81
2017-08-07T17:55:03.785Z,25.84
2017-08-07T17:57:31.319Z,25.72
2017-08-07T17:59:58.875Z,25.93
2017-08-07T18:02:26.337Z,25.64
2017-08-07T18:04:53.823Z,25.47
2017-08-07T18:07:21.342Z,25.29
2017-08-07T18:09:48.829Z,25.12
2017-08-07T18:12:16.292Z,24.73
2017-08-07T18:14:43.815Z,24.67
2017-08-07T18:17:11.393Z,24.75
2017-08-07T18:19:38.937Z,24.62
2017-08-07T18:22:06.479Z,24.84
2017-08-07T18:24:33.991Z,24.61
2017-08-07T18:27:01.551Z,24.59
2017-08-07T18:29:29.271Z,24.55
2017-08-07T18:31:56.825Z,24.42
2017-08-07T18:34:24.326Z,24.35
2017-08-07T18:36:51.894Z,24.30
2017-08-07T18:39:19.353Z,24.24
2017-08-07T18:41:47.319Z,24.15
2017-08-07T18:44:14.770Z,24.05
2017-08-07T18:46:42.273Z,23.98
2017-08-07T18:49:09.744Z,23.95
2017-08-07T18:51:37.224Z,23.98
2017-08-07T18:54:04.955Z,23.84
2017-08-07T18:56:32.514Z,23.62
2017-08-07T18:59:00.124Z,23.57
2017-08-07T19:01:27.643Z,23.52
2017-08-07T19:03:55.113Z,23.47
2017-08-07T19:06:22.645Z,23.25
2017-08-07T19:08:50.204Z,23.33
2017-08-07T19:11:17.772Z,23.28
2017-08-07T19:13:45.217Z,23.31
2017-08-07T19:16:12.788Z,23.31
2017-08-07T19:18:40.689Z,22.83
2017-08-07T19:21:08.233Z,22.67
2017-08-07T19:23:35.764Z,22.55
2017-08-07T19:26:03.228Z,22.40
2017-08-07T19:28:30.790Z,22.23
2017-08-07T19:30:58.636Z,22.22
2017-08-07T19:33:26.200Z,22.12
2017-08-07T19:35:53.765Z,22.12
2017-08-07T19:38:22.149Z,22.11
2017-08-07T19:40:49.605Z,22.26
2017-08-07T19:43:17.411Z,22.43
2017-08-07T19:45:44.905Z,22.27
2017-08-07T19:48:12.474Z,22.29
2017-08-07T19:50:40.017Z,22.28
2017-08-07T19:53:07.501Z,22.30
2017-08-07T19:55:34.958Z,22.11
2017-08-07T19:58:02.423Z,22.43
2017-08-07T20:00:29.964Z,22.14
2017-08-07T20:02:57.421Z,22.05
2017-08-07T20:05:24.997Z,22.14
2017-08-07T20:07:52.731Z,22.00
2017-08-07T20:10:20.210Z,21.98
2017-08-07T20:12:47.651Z,21.94
2017-08-07T20:15:15.124Z,21.91
2017-08-07T20:17:42.675Z,21.85
2017-08-07T20:20:10.177Z,21.66
2017-08-07T20:22:37.637Z,21.65
2017-08-07T20:25:05.117Z,21.66
2017-08-07T20:27:32.602Z,21.76
2017-08-07T20:30:00.165Z,21.75
2017-08-07T20:32:27.742Z,21.66
2017-08-07T20:34:55.199Z,21.66
2017-08-07T20:37:22.733Z,21.60
2017-08-07T20:39:50.205Z,21.61
2017-08-07T20:42:17.681Z,21.44
2017-08-07T20:44:45.138Z,21.46
2017-08-07T20:47:12.628Z,21.32
2017-08-07T20:49:40.126Z,21.46
2017-08-07T20:52:07.610Z,21.33
2017-08-07T20:54:35.081Z,21.42
2017-08-07T20:57:02.562Z,21.53
2017-08-07T20:59:30.912Z,21.73
2017-08-07T21:01:58.388Z,21.83
2017-08-07T21:04:25.927Z,21.85
2017-08-07T21:06:53.445Z,21.82
2017-08-07T21:09:21.001Z,21.70
2017-08-07T21:11:48.911Z,21.81
2017-08-07T21:14:16.408Z,21.62
2017-08-07T21:16:43.872Z,21.40
2017-08-07T21:19:11.437Z,21.32
2017-08-07T21:21:38.905Z,21.37
2017-08-07T21:24:06.542Z,21.27
2017-08-07T21:26:34.007Z,21.50
2017-08-07T21:29:01.582Z,21.43
2017-08-07T21:31:29.031Z,21.28
2017-08-07T21:33:56.585Z,21.32
2017-08-07T21:36:24.398Z,21.41
2017-08-07T21:38:52.006Z,21.41
2017-08-07T21:41:19.458Z,21.11
2017-08-07T21:43:46.942Z,21.20
2017-08-07T21:46:14.493Z,21.31
2017-08-07T21:48:42.040Z,21.12
2017-08-07T21:51:09.542Z,20.96
2017-08-07T21:53:37.061Z,20.62
2017-08-07T21:56:04.617Z,20.58
2017-08-07T21:58:32.069Z,20.28
2017-08-07T22:00:59.636Z,20.17
2017-08-07T22:03:27.193Z,20.03
2017-08-07T22:05:54.674Z,20.20
2017-08-07T22:08:22.209Z,19.85
2017-08-07T22:10:49.705Z,19.79
2017-08-07T22:13:17.165Z,19.72
2017-08-07T22:15:44.736Z,19.54
2017-08-07T22:18:12.245Z,19.43
2017-08-07T22:20:39.794Z,19.91
2017-08-07T22:23:07.277Z,19.71
2017-08-07T22:25:34.745Z,19.57
2017-08-07T22:28:02.273Z,19.71
2017-08-07T22:30:29.738Z,18.95
2017-08-07T22:32:57.243Z,19.21
2017-08-07T22:35:24.718Z,19.30
2017-08-07T22:37:52.186Z,18.97
2017-08-07T22:40:19.753Z,19.22
2017-08-07T22:42:47.237Z,19.16
2017-08-07T22:45:14.713Z,19.26
2017-08-07T22:47:42.201Z,18.92
2017-08-07T22:50:09.677Z,18.94
2017-08-07T22:52:37.180Z,18.93
2017-08-07T22:55:04.641Z,18.57
2017-08-07T22:57:32.164Z,18.42
2017-08-07T22:59:59.756Z,18.73
2017-08-07T23:02:27.221Z,18.48
2017-08-07T23:04:54.695Z,18.45
2017-08-07T23:07:22.156Z,18.46
2017-08-07T23:09:49.621Z,18.17
2017-08-07T23:12:17.089Z,18.13
2017-08-07T23:14:44.586Z,18.24
2017-08-07T23:17:12.113Z,17.92
2017-08-07T23:19:39.661Z,17.90
2017-08-07T23:22:07.114Z,18.05
2017-08-07T23:24:34.597Z,17.94
2017-08-07T23:27:02.137Z,18.05
2017-08-07T23:29:29.745Z,18.04
2017-08-07T23:31:57.247Z,18.05
2017-08-07T23:34:24.717Z,17.95
2017-08-07T23:36:52.259Z,17.93
2017-08-07T23:39:19.733Z,17.90
2017-08-07T23:41:47.284Z,17.87
2017-08-07T23:44:14.740Z,17.56
2017-08-07T23:46:42.211Z,17.73
2017-08-07T23:49:09.673Z,17.65
2017-08-07T23:51:37.241Z,17.56
2017-08-07T23:54:04.822Z,17.41
2017-08-07T23:56:32.339Z,17.28
2017-08-07T23:58:59.892Z,17.30
